L'Estartit (Baix Empordà)





Hora UTC 17:55
Temperatura 14.2 ºC
Humitat 64.0 %
Pressió 1016.4 hPa
Pluja 0.0 mm
Velocitat vent 25.7 km/h
Direcció vent

Dades diàries 2024-04-16



Hora UTC (hivern +1h; estiu +2h)
Temperatura (ºC) Humitat (%) Pressió (hPa) Velocitat vent (km/h) Precipitació (mm)
Hora UTC Aire Humitat Pressió Vel. Dir. Vel. Max Dir. Intent. màx 5 min.
00:05 14.6 81.0 1020.5 0.0 0.0 0.0
00:15 14.5 79.0 1020.5 3.2 12.9 0.0
00:25 14.6 80.0 1020.4 0.0 12.9 0.0
00:35 14.6 80.0 1020.4 0.0 12.9 0.0
00:45 14.2 82.0 1020.4 0.0 12.9 0.0
00:55 13.9 83.0 1020.2 0.0 12.9 0.0
01:05 13.9 83.0 1020.2 0.0 12.9 0.0
01:15 13.7 84.0 1019.9 0.0 12.9 0.0
01:25 13.6 84.0 1019.8 0.0 12.9 0.0
01:35 13.6 84.0 1019.8 0.0 12.9 0.0
01:45 13.2 82.0 1019.6 1.6 16.1 0.0
01:55 12.6 84.0 1019.4 11.3 17.7 0.0
02:05 12.6 84.0 1019.4 11.3 17.7 0.0
02:15 12.6 84.0 1019.3 9.7 17.7 0.0
02:25 12.5 84.0 1019.1 8.0 17.7 0.0
02:35 12.5 84.0 1019.1 8.0 17.7 0.0
02:45 12.8 84.0 1019.2 4.8 17.7 0.0
02:55 12.5 82.0 1019.2 4.8 17.7 0.0
03:05 12.5 82.0 1019.2 4.8 17.7 0.0
03:15 12.2 81.0 1019.1 6.4 17.7 0.0
03:25 12.1 80.0 1019.0 8.0 17.7 0.0
03:45 12.1 80.0 1019.0 8.0 17.7 0.0
03:55 12.1 79.0 1018.8 6.4 17.7 0.0
04:05 12.1 79.0 1018.8 6.4 17.7 0.0
04:15 11.7 79.0 1018.5 8.0 17.7 0.0
04:25 11.8 76.0 1018.3 14.5 17.7 0.0
04:35 11.8 76.0 1018.3 14.5 17.7 0.0
04:45 11.7 76.0 1018.3 12.9 17.7 0.0
04:55 11.4 76.0 1018.3 12.9 17.7 0.0
05:05 11.4 76.0 1018.3 12.9 17.7 0.0
05:15 11.2 77.0 1018.3 12.9 17.7 0.0
05:25 11.3 77.0 1018.5 12.9 17.7 0.0
05:35 11.3 77.0 1018.5 12.9 17.7 0.0
05:45 11.7 76.0 1018.3 12.9 17.7 0.0
05:55 12.2 74.0 1018.7 14.5 20.9 0.0
06:05 12.2 74.0 1018.7 14.5 20.9 0.0
06:15 12.4 73.0 1018.6 8.0 20.9 0.0
06:25 12.4 73.0 1018.6 3.2 20.9 0.0
06:35 12.4 73.0 1018.6 3.2 20.9 0.0
06:45 12.6 71.0 1018.7 6.4 20.9 0.0
06:55 12.9 71.0 1018.5 3.2 20.9 0.0
07:05 12.9 71.0 1018.5 3.2 20.9 0.0
07:15 13.6 68.0 1018.5 6.4 20.9 0.0
07:25 14.0 67.0 1018.5 8.0 20.9 0.0
07:35 14.0 67.0 1018.5 8.0 20.9 0.0
07:45 14.6 62.0 1018.5 4.8 20.9 0.0
07:55 14.8 60.0 1018.2 4.8 20.9 0.0
08:05 14.8 60.0 1018.2 4.8 20.9 0.0
08:15 14.9 60.0 1018.1 9.7 22.5 0.0
08:25 15.3 58.0 1018.1 11.3 25.7 0.0
08:35 15.3 58.0 1018.1 11.3 25.7 0.0
08:45 15.6 57.0 1017.9 11.3 25.7 0.0
08:55 15.7 59.0 1018.0 14.5 29.0 0.0
09:05 15.7 59.0 1018.0 14.5 29.0 0.0
09:15 15.7 61.0 1018.1 16.1 29.0 0.0
09:25 15.8 60.0 1018.2 16.1 29.0 0.0
09:35 15.8 60.0 1018.2 16.1 29.0 0.0
09:55 16.2 55.0 1018.4 16.1 30.6 0.0
10:05 16.2 55.0 1018.4 16.1 30.6 0.0
10:15 16.4 55.0 1018.2 8.0 30.6 0.0
10:25 16.7 55.0 1018.1 0.0 30.6 0.0
10:35 16.7 55.0 1018.1 0.0 30.6 0.0
10:55 14.0 74.0 1018.2 3.2 30.6 0.0
11:05 14.0 74.0 1018.2 3.2 30.6 0.0
11:15 14.9 70.0 1018.3 4.8 30.6 0.0
11:25 15.8 65.0 1018.1 3.2 30.6 0.0
11:35 15.8 65.0 1018.1 3.2 30.6 0.0
11:45 15.2 64.0 1017.8 20.9 38.6 0.0
11:55 14.7 65.0 1017.7 27.4 43.5 0.0
12:05 14.7 65.0 1017.7 27.4 43.5 0.0
12:15 14.9 65.0 1017.6 27.4 45.1 0.0
12:25 15.1 64.0 1017.3 30.6 45.1 0.0
12:35 15.1 64.0 1017.3 30.6 45.1 0.0
12:45 15.3 64.0 1017.3 27.4 45.1 0.0
12:55 15.6 63.0 1017.1 24.1 45.1 0.0
13:05 15.6 63.0 1017.1 24.1 45.1 0.0
13:15 15.3 63.0 1017.2 25.7 45.1 0.0
13:25 16.1 61.0 1016.8 25.7 45.1 0.0
13:35 16.1 61.0 1016.8 25.7 45.1 0.0
13:45 16.3 59.0 1016.8 24.1 45.1 0.0
13:55 16.4 59.0 1016.6 22.5 45.1 0.0
14:05 16.4 59.0 1016.6 22.5 45.1 0.0
14:15 16.9 57.0 1016.3 22.5 45.1 0.0
14:25 16.6 58.0 1016.2 24.1 45.1 0.0
14:35 16.6 58.0 1016.2 24.1 45.1 0.0
14:45 15.8 61.0 1016.3 27.4 45.1 0.0
14:55 15.6 62.0 1016.3 27.4 45.1 0.0
15:05 15.6 62.0 1016.3 27.4 45.1 0.0
15:15 15.4 61.0 1016.4 25.7 45.1 0.0
15:25 15.4 62.0 1016.2 20.9 45.1 0.0
15:35 15.4 62.0 1016.2 20.9 45.1 0.0
15:45 15.6 62.0 1016.1 24.1 45.1 0.0
15:55 15.6 62.0 1016.1 24.1 45.1 0.0
16:05 15.6 62.0 1016.1 24.1 45.1 0.0
16:15 14.6 65.0 1016.3 24.1 45.1 0.0
16:25 14.7 64.0 1016.3 17.7 45.1 0.0
16:35 14.7 64.0 1016.3 17.7 45.1 0.0
16:45 14.8 61.0 1016.3 14.5 45.1 0.0
16:55 14.8 60.0 1016.4 20.9 45.1 0.0
17:05 14.8 60.0 1016.4 20.9 45.1 0.0
17:15 14.6 62.0 1016.3 25.7 45.1 0.0
17:25 14.4 63.0 1016.2 27.4 45.1 0.0
17:35 14.4 63.0 1016.2 27.4 45.1 0.0
17:45 14.4 63.0 1016.2 27.4 45.1 0.0
17:55 14.2 64.0 1016.4 25.7 48.3 0.0
Màxima 17.1 84.0 1020.5 30.6 48.3 0.0
Mínima 11.2 55.0 1016.1
Total 0.0